Kountze, Texas
Current Conditions -  °F | °C
As of 1:35 AM on Sunday 23 Nov 2014 (Local Time) from KBMT Reporting Station
Heavy Rain Heavy Rain  
Wind Chill: 64°   Ceiling: 900
Heat Index: 64°   Visibility: 4mi
Dew Point: 64°   Wind: 10mph
Humidity: 100%   Direction: 250°WSW
Pressure: 29.74"   Gusts: NA
Location:  30.37°N, 94.31°W
Report Text: KBMT 230735Z AUTO 25009KT 4SM +RA SCT004 BKN009 OVC028 18/18 A2974 RMK AO2 LTG DSNT E AND S T01750175
Loading
Personal Weather Stations






























Interactive Weather Map New forecast layout! Learn more

10-Day Weather Forecast

Advertisements
Track Severe Weather on mobile